createdAt,value
2023-03-27T00:01:23.364Z,11.4
2023-03-27T00:02:38.098Z,7.7
2023-03-27T00:03:51.641Z,6.2
2023-03-27T00:06:19.895Z,7.3
2023-03-27T00:08:48.161Z,6.8
2023-03-27T00:11:16.417Z,5.8
2023-03-27T00:13:44.673Z,6.9
2023-03-27T00:16:12.930Z,6.4
2023-03-27T00:18:41.188Z,5.3
2023-03-27T00:21:09.438Z,5.8
2023-03-27T00:26:05.958Z,8
2023-03-27T00:27:20.688Z,9.2
2023-03-27T00:28:34.287Z,5.2
2023-03-27T00:31:02.490Z,5.8
2023-03-27T00:33:30.750Z,7.8
2023-03-27T00:35:59.004Z,6.8
2023-03-27T00:38:27.262Z,7.2
2023-03-27T00:40:55.517Z,7.1
2023-03-27T00:43:23.772Z,5.3
2023-03-27T00:45:52.034Z,7.3
2023-03-27T00:48:20.293Z,7.2
2023-03-27T00:50:48.551Z,6.5
2023-03-27T00:52:03.277Z,7.1
2023-03-27T00:55:45.318Z,4.8
2023-03-27T00:58:13.577Z,6.3
2023-03-27T01:00:41.834Z,6.3
2023-03-27T01:03:10.087Z,7.4
2023-03-27T01:05:38.349Z,7.7
2023-03-27T01:08:06.606Z,4.7
2023-03-27T01:10:34.862Z,6.7
2023-03-27T01:13:03.118Z,6.3
2023-03-27T01:15:31.372Z,6.2
2023-03-27T01:16:46.112Z,6.1
2023-03-27T01:17:59.651Z,6.7
2023-03-27T01:20:27.911Z,4.6
2023-03-27T01:22:56.165Z,7.9
2023-03-27T01:27:52.684Z,7.9
2023-03-27T01:30:20.934Z,3.8
2023-03-27T01:32:49.194Z,7.2
2023-03-27T01:35:17.457Z,8.1
2023-03-27T01:37:45.714Z,5.6
2023-03-27T01:40:13.972Z,5.9
2023-03-27T01:41:28.705Z,4.2
2023-03-27T01:42:42.248Z,5.9
2023-03-27T01:45:10.502Z,5.5
2023-03-27T01:47:38.760Z,5.1
2023-03-27T01:50:07.020Z,5.7
2023-03-27T01:52:35.277Z,6
2023-03-27T01:55:03.528Z,6.5
2023-03-27T02:00:00.051Z,6
2023-03-27T02:02:28.307Z,6.8
2023-03-27T02:04:56.563Z,5.6
2023-03-27T02:06:11.302Z,4.1
2023-03-27T02:07:24.839Z,6.6
2023-03-27T02:09:53.095Z,5.2
2023-03-27T02:12:21.356Z,7.5
2023-03-27T02:14:49.611Z,6.1
2023-03-27T02:17:17.871Z,5.1
2023-03-27T02:19:46.130Z,5.5
2023-03-27T02:22:14.388Z,7.2
2023-03-27T02:24:42.649Z,5.7
2023-03-27T02:27:10.899Z,5.3
2023-03-27T02:30:53.890Z,4.4
2023-03-27T02:32:07.439Z,11.2
2023-03-27T02:34:35.698Z,5.6
2023-03-27T02:37:03.958Z,7.2
2023-03-27T02:39:32.215Z,8.3
2023-03-27T02:42:00.465Z,7.1
2023-03-27T02:44:28.727Z,7.4
2023-03-27T02:46:56.988Z,8
2023-03-27T02:49:25.245Z,7.7
2023-03-27T02:51:53.499Z,7.2
2023-03-27T02:54:21.761Z,8.2
2023-03-27T02:55:36.492Z,8
2023-03-27T02:56:50.039Z,8
2023-03-27T03:01:46.551Z,7.3
2023-03-27T03:04:14.803Z,6.7
2023-03-27T03:06:43.069Z,7.2
2023-03-27T03:09:11.325Z,7.7
2023-03-27T03:11:39.579Z,10.4
2023-03-27T03:14:07.839Z,5.7
2023-03-27T03:16:36.097Z,6.3
2023-03-27T03:19:04.359Z,6.7
2023-03-27T03:20:19.085Z,9.3
2023-03-27T03:21:32.629Z,9.1
2023-03-27T03:24:00.884Z,7.8
2023-03-27T03:26:29.147Z,6.1
2023-03-27T03:28:57.404Z,6.6
2023-03-27T03:33:53.924Z,6.4
2023-03-27T03:36:22.175Z,7.6
2023-03-27T03:38:50.436Z,8.5
2023-03-27T03:41:18.696Z,7.2
2023-03-27T03:43:46.946Z,8.9
2023-03-27T03:45:01.680Z,9.1
2023-03-27T03:46:15.227Z,10.5
2023-03-27T03:48:43.482Z,9.9
2023-03-27T03:51:11.745Z,8.6
2023-03-27T03:53:40.003Z,8.4
2023-03-27T03:56:08.255Z,9.2
2023-03-27T03:58:36.512Z,9.2
2023-03-27T04:01:04.773Z,9.7
2023-03-27T04:06:01.293Z,8.8
2023-03-27T04:08:29.545Z,9.2
2023-03-27T04:09:44.284Z,7.5
2023-03-27T04:10:57.824Z,13.2
2023-03-27T04:13:26.077Z,8.2
2023-03-27T04:15:54.344Z,5.6
2023-03-27T04:18:22.592Z,9.4
2023-03-27T04:20:50.854Z,10
2023-03-27T04:23:19.108Z,9.6
2023-03-27T04:25:47.372Z,9.5
2023-03-27T04:28:15.625Z,6.5
2023-03-27T04:30:43.884Z,10.2
2023-03-27T04:33:12.144Z,7.5
2023-03-27T04:35:40.398Z,9.3
2023-03-27T04:38:08.663Z,7
2023-03-27T04:40:36.920Z,9.6
2023-03-27T04:43:05.180Z,8
2023-03-27T04:45:33.438Z,10.2
2023-03-27T04:48:01.693Z,10.1
2023-03-27T04:50:29.949Z,8.5
2023-03-27T04:52:58.203Z,7.9
2023-03-27T04:55:26.467Z,8.4
2023-03-27T04:57:54.717Z,8.8
2023-03-27T04:59:09.476Z,8.3
2023-03-27T05:00:23.014Z,9.5
2023-03-27T05:02:51.279Z,9
2023-03-27T05:07:47.792Z,12.2
2023-03-27T05:10:16.046Z,9.9
2023-03-27T05:12:44.307Z,10.5
2023-03-27T05:15:12.563Z,7.1
2023-03-27T05:17:40.825Z,12.9
2023-03-27T05:20:09.078Z,8.6
2023-03-27T05:22:37.341Z,7.3
2023-03-27T05:23:52.072Z,8.6
2023-03-27T05:25:05.616Z,10.7
2023-03-27T05:27:33.876Z,11.9
2023-03-27T05:30:02.125Z,7.8
2023-03-27T05:32:30.385Z,10.3
2023-03-27T05:34:58.648Z,11.6
2023-03-27T05:39:55.158Z,13.6
2023-03-27T05:42:23.417Z,13.6
2023-03-27T05:44:51.670Z,12.3
2023-03-27T05:47:19.934Z,11.4
2023-03-27T05:48:34.666Z,11.1
2023-03-27T05:49:48.210Z,10.5
2023-03-27T05:52:16.468Z,11.3
2023-03-27T05:54:44.728Z,12
2023-03-27T05:57:12.980Z,9.4
2023-03-27T05:59:41.241Z,9.6
2023-03-27T06:02:09.499Z,11.1
2023-03-27T06:04:37.749Z,12.1
2023-03-27T06:07:06.015Z,11
2023-03-27T06:12:02.527Z,12.2
2023-03-27T06:13:17.261Z,11.3
2023-03-27T06:14:30.803Z,10.5
2023-03-27T06:16:59.062Z,10.3
2023-03-27T06:19:27.316Z,9.4
2023-03-27T06:21:55.572Z,10.1
2023-03-27T06:24:23.830Z,10
2023-03-27T06:26:52.084Z,10.1
2023-03-27T06:29:20.346Z,8.3
2023-03-27T06:31:48.605Z,12.4
2023-03-27T06:34:16.856Z,10.8
2023-03-27T06:36:45.113Z,8.8
2023-03-27T06:37:59.852Z,9.2
2023-03-27T06:41:41.879Z,7.2
2023-03-27T06:44:10.143Z,9.9
2023-03-27T06:46:38.396Z,7.6
2023-03-27T06:49:06.658Z,9
2023-03-27T06:51:34.909Z,12.2
2023-03-27T06:54:03.171Z,7.1
2023-03-27T06:56:31.429Z,6.9
2023-03-27T06:58:59.681Z,8.3
2023-03-27T07:01:27.936Z,9.4
2023-03-27T07:02:42.675Z,13
2023-03-27T07:03:56.212Z,9.1
2023-03-27T07:06:24.468Z,8.4
2023-03-27T07:08:52.733Z,7.4
2023-03-27T07:13:49.246Z,7.2
2023-03-27T07:16:17.497Z,6.4
2023-03-27T07:18:45.757Z,5.1
2023-03-27T07:21:14.011Z,5.3
2023-03-27T07:23:42.266Z,6.9
2023-03-27T07:26:10.524Z,5.4
2023-03-27T07:27:25.256Z,4.5
2023-03-27T07:28:38.799Z,3.5
2023-03-27T07:31:07.059Z,6.2
2023-03-27T07:33:35.317Z,5.3
2023-03-27T07:36:03.574Z,6.4
2023-03-27T07:38:31.832Z,6
2023-03-27T07:41:00.084Z,5.9
2023-03-27T07:45:56.604Z,5.9
2023-03-27T07:48:24.860Z,4.6
2023-03-27T07:50:53.113Z,7.4
2023-03-27T07:52:07.844Z,7.2
2023-03-27T07:53:21.391Z,5.5
2023-03-27T07:55:49.642Z,7.3
2023-03-27T07:58:17.899Z,6.6
2023-03-27T08:03:14.420Z,5.7
2023-03-27T08:05:42.674Z,6.9
2023-03-27T08:08:10.932Z,8
2023-03-27T08:10:39.184Z,9.1
2023-03-27T08:13:07.448Z,7.3
2023-03-27T08:16:50.433Z,6.5
2023-03-27T08:18:03.976Z,7.5
2023-03-27T08:20:32.237Z,5.9
2023-03-27T08:23:00.488Z,5.7
2023-03-27T08:25:28.749Z,6.7
2023-03-27T08:27:57.010Z,5
2023-03-27T08:30:25.263Z,6.4
2023-03-27T08:32:53.521Z,7.1
2023-03-27T08:35:21.772Z,7.3
2023-03-27T08:37:50.036Z,6.5
2023-03-27T08:40:18.292Z,6.9
2023-03-27T08:41:33.023Z,6.3
2023-03-27T08:42:46.562Z,4.9
2023-03-27T08:50:11.338Z,5.1
2023-03-27T08:52:39.590Z,7.4
2023-03-27T08:55:07.850Z,6.9
2023-03-27T08:57:36.109Z,5.8
2023-03-27T09:00:04.360Z,7.9
2023-03-27T09:02:32.616Z,4.4
2023-03-27T09:05:00.873Z,7
2023-03-27T09:06:15.605Z,5.8
2023-03-27T09:07:29.152Z,7.1
2023-03-27T09:09:57.409Z,5.3
2023-03-27T09:12:25.668Z,5
2023-03-27T09:14:53.918Z,5.6
2023-03-27T09:19:50.439Z,5.4
2023-03-27T09:22:18.694Z,5.8
2023-03-27T09:24:46.952Z,5.1
2023-03-27T09:27:15.207Z,7.6
2023-03-27T09:29:43.459Z,9.3
2023-03-27T09:30:58.197Z,5.6
2023-03-27T09:32:11.742Z,4.9
2023-03-27T09:34:39.992Z,4.4
2023-03-27T09:37:08.250Z,7.6
2023-03-27T09:39:36.514Z,7.5
2023-03-27T09:42:04.762Z,6.8
2023-03-27T09:44:33.022Z,7.2
2023-03-27T09:47:01.279Z,5.7
2023-03-27T09:51:57.797Z,6.8
2023-03-27T09:54:26.054Z,9
2023-03-27T09:55:40.780Z,6.9
2023-03-27T09:56:54.331Z,8
2023-03-27T09:59:22.582Z,11.3
2023-03-27T10:01:50.845Z,7.9
2023-03-27T10:04:19.096Z,6.8
2023-03-27T10:06:47.361Z,6.6
2023-03-27T10:09:15.617Z,6.2
2023-03-27T10:11:43.873Z,7.1
2023-03-27T10:14:12.123Z,6
2023-03-27T10:16:40.388Z,6.5
2023-03-27T10:19:08.640Z,4.9
2023-03-27T10:21:36.898Z,6.2
2023-03-27T10:24:05.157Z,6.7
2023-03-27T10:26:33.411Z,8.5
2023-03-27T10:29:01.670Z,5
2023-03-27T10:31:29.928Z,2.8
2023-03-27T10:33:58.189Z,3.4
2023-03-27T10:36:26.439Z,2.6
2023-03-27T10:38:54.698Z,3.7
2023-03-27T10:41:22.958Z,3
2023-03-27T10:43:51.216Z,7.4
2023-03-27T10:45:05.964Z,3.9
2023-03-27T10:46:19.509Z,4
2023-03-27T10:48:47.762Z,5.7
2023-03-27T10:53:44.278Z,2.8
2023-03-27T10:56:12.532Z,1.4
2023-03-27T11:01:09.049Z,0.7
2023-03-27T11:03:37.306Z,1.1
2023-03-27T11:06:05.567Z,1.7
2023-03-27T11:08:33.827Z,2
2023-03-27T11:09:48.553Z,3.1
2023-03-27T11:11:02.103Z,3.3
2023-03-27T11:13:30.355Z,2.8
2023-03-27T11:15:58.609Z,3.4
2023-03-27T11:18:26.873Z,2.5
2023-03-27T11:20:55.129Z,3.9
2023-03-27T11:25:51.645Z,3.6
2023-03-27T11:28:19.904Z,3
2023-03-27T11:30:48.155Z,6.6
2023-03-27T11:33:16.413Z,3.2
2023-03-27T11:34:31.151Z,4.3
2023-03-27T11:35:44.695Z,4.5
2023-03-27T11:38:12.951Z,4.7
2023-03-27T11:40:41.205Z,4.5
2023-03-27T11:43:09.461Z,4
2023-03-27T11:45:37.716Z,5.4
2023-03-27T11:48:05.973Z,4.2
2023-03-27T11:50:34.235Z,3.7
2023-03-27T11:53:02.486Z,5.7
2023-03-27T11:57:59.004Z,7.6
2023-03-27T11:59:13.740Z,5.1
2023-03-27T12:00:27.279Z,4.6
2023-03-27T12:02:55.535Z,5.7
2023-03-27T12:05:23.793Z,3
2023-03-27T12:07:52.057Z,3.5
2023-03-27T12:10:20.310Z,2.9
2023-03-27T12:12:48.567Z,2.8
2023-03-27T12:15:16.825Z,4
2023-03-27T12:17:45.087Z,4.6
2023-03-27T12:20:13.345Z,5.1
2023-03-27T12:22:41.598Z,6.3
2023-03-27T12:23:56.331Z,5.2
2023-03-27T12:27:38.368Z,5.5
2023-03-27T12:30:06.623Z,5.8
2023-03-27T12:32:34.882Z,9.6
2023-03-27T12:35:03.136Z,5.6
2023-03-27T12:37:31.389Z,6.3
2023-03-27T12:39:59.646Z,6
2023-03-27T12:42:27.906Z,6.1
2023-03-27T12:44:56.166Z,4.8
2023-03-27T12:47:24.419Z,4.5
2023-03-27T12:48:39.151Z,7.8
2023-03-27T12:49:52.699Z,4.4
2023-03-27T12:52:20.955Z,5.8
2023-03-27T12:54:49.216Z,4
2023-03-27T12:59:45.728Z,3.3
2023-03-27T13:02:13.986Z,5.1
2023-03-27T13:04:42.237Z,5.4
2023-03-27T13:07:10.501Z,6.9
2023-03-27T13:09:38.752Z,6.9
2023-03-27T13:12:07.007Z,6.1
2023-03-27T13:13:21.742Z,3.9
2023-03-27T13:14:35.289Z,5.5
2023-03-27T13:17:03.551Z,5
2023-03-27T13:19:31.802Z,5.7
2023-03-27T13:22:00.064Z,5.8
2023-03-27T13:24:28.321Z,8.9
2023-03-27T13:26:56.577Z,5.9
2023-03-27T13:31:53.087Z,5.3
2023-03-27T13:34:21.351Z,5
2023-03-27T13:36:49.601Z,7.7
2023-03-27T13:38:04.337Z,6.7
2023-03-27T13:39:17.879Z,7.7
2023-03-27T13:41:46.139Z,5.3
2023-03-27T13:44:14.394Z,5.3
2023-03-27T13:46:42.649Z,5.5
2023-03-27T13:49:10.913Z,8
2023-03-27T13:51:39.167Z,6.4
2023-03-27T13:54:07.428Z,4.7
2023-03-27T13:56:35.686Z,5.6
2023-03-27T13:59:03.944Z,5.1
2023-03-27T14:02:46.931Z,4.9
2023-03-27T14:04:00.471Z,2.7
2023-03-27T14:06:28.727Z,5.3
2023-03-27T14:08:56.989Z,5.6
2023-03-27T14:11:25.241Z,5.2
2023-03-27T14:13:53.504Z,6.1
2023-03-27T14:16:21.759Z,2.7
2023-03-27T14:18:50.014Z,5.7
2023-03-27T14:21:18.273Z,3.6
2023-03-27T14:23:46.536Z,6.3
2023-03-27T14:26:14.793Z,3.9
2023-03-27T14:27:29.517Z,5
2023-03-27T14:28:43.063Z,5.2
2023-03-27T14:33:39.582Z,4.2
2023-03-27T14:36:07.839Z,5.5
2023-03-27T14:38:36.091Z,6.1
2023-03-27T14:41:04.348Z,4.6
2023-03-27T14:43:32.609Z,5.7
2023-03-27T14:46:00.869Z,6.3
2023-03-27T14:48:29.128Z,7
2023-03-27T14:50:57.384Z,6.3
2023-03-27T14:52:12.115Z,7
2023-03-27T14:53:25.662Z,32.9
2023-03-27T14:55:53.915Z,21.8
2023-03-27T14:58:22.174Z,6.5
2023-03-27T15:00:50.434Z,5.7
2023-03-27T15:05:46.946Z,7.5
2023-03-27T15:08:15.199Z,4.6
2023-03-27T15:10:43.463Z,6.8
2023-03-27T15:13:11.719Z,7.2
2023-03-27T15:15:39.968Z,8.9
2023-03-27T15:16:54.703Z,6.6
2023-03-27T15:18:08.246Z,5.8
2023-03-27T15:20:36.505Z,5.7
2023-03-27T15:23:04.767Z,5.9
2023-03-27T15:25:33.020Z,5.9
2023-03-27T15:28:01.272Z,3.6
2023-03-27T15:30:29.537Z,5.2
2023-03-27T15:32:57.789Z,4.9
2023-03-27T15:37:54.307Z,6.4
2023-03-27T15:40:22.561Z,6.3
2023-03-27T15:41:37.296Z,6.9
2023-03-27T15:42:50.837Z,8.5
2023-03-27T15:45:19.094Z,13.4
2023-03-27T15:47:47.354Z,9.7
2023-03-27T15:50:15.606Z,17.4
2023-03-27T15:52:43.868Z,5.2
2023-03-27T15:55:12.126Z,6.8
2023-03-27T15:57:40.378Z,3.7
2023-03-27T16:00:08.639Z,5.5
2023-03-27T16:02:36.891Z,10.2
2023-03-27T16:05:05.155Z,8.5
2023-03-27T16:07:33.410Z,6.9
2023-03-27T16:10:01.666Z,7.1
2023-03-27T16:12:29.921Z,9
2023-03-27T16:14:58.177Z,7.5
2023-03-27T16:17:26.441Z,9.7
2023-03-27T16:19:54.700Z,8.5
2023-03-27T16:22:22.952Z,7.6
2023-03-27T16:24:51.208Z,5.9
2023-03-27T16:27:19.464Z,8.3
2023-03-27T16:29:47.720Z,7.5
2023-03-27T16:31:02.471Z,7.4
2023-03-27T16:32:16.017Z,4.5
2023-03-27T16:34:44.273Z,5.2
2023-03-27T16:39:40.793Z,4.6
2023-03-27T16:42:09.047Z,4
2023-03-27T16:44:37.310Z,6.7
2023-03-27T16:47:05.565Z,7
2023-03-27T16:49:33.819Z,7
2023-03-27T16:52:02.082Z,8.4
2023-03-27T16:54:30.330Z,10.9
2023-03-27T16:55:45.064Z,7.6
2023-03-27T16:56:58.612Z,6.8
2023-03-27T16:59:26.866Z,10.7
2023-03-27T17:01:55.124Z,8.3
2023-03-27T17:04:23.379Z,8.5
2023-03-27T17:06:51.641Z,7.7
2023-03-27T17:11:48.160Z,7.9
2023-03-27T17:14:16.410Z,12.5
2023-03-27T17:16:44.669Z,8.4
2023-03-27T17:19:12.925Z,7.4
2023-03-27T17:20:27.660Z,11.2
2023-03-27T17:21:41.202Z,9.5
2023-03-27T17:24:09.460Z,10.4
2023-03-27T17:26:37.726Z,11.2
2023-03-27T17:29:05.981Z,7.6
2023-03-27T17:31:34.231Z,6.2
2023-03-27T17:34:02.495Z,4.2
2023-03-27T17:36:30.750Z,2.8
2023-03-27T17:38:59.003Z,4.5
2023-03-27T17:43:55.526Z,2.4
2023-03-27T17:45:10.257Z,2.8
2023-03-27T17:46:23.794Z,5
2023-03-27T17:48:52.052Z,3.3
2023-03-27T17:51:20.311Z,4.7
2023-03-27T17:53:48.620Z,4.4
2023-03-27T17:56:16.829Z,3.5
2023-03-27T17:58:45.086Z,4.3
2023-03-27T18:01:13.345Z,4.6
2023-03-27T18:03:41.595Z,5.6
2023-03-27T18:06:09.852Z,4
2023-03-27T18:08:38.114Z,6.5
2023-03-27T18:09:52.846Z,5.6
2023-03-27T18:13:34.881Z,5.7
2023-03-27T18:16:03.133Z,5.6
2023-03-27T18:18:31.395Z,8
2023-03-27T18:20:59.644Z,10.5
2023-03-27T18:23:27.911Z,10.2
2023-03-27T18:25:56.169Z,8.7
2023-03-27T18:28:24.422Z,6.5
2023-03-27T18:30:52.680Z,8.4
2023-03-27T18:33:20.934Z,6.8
2023-03-27T18:34:35.670Z,6.4
2023-03-27T18:35:49.218Z,7.5
2023-03-27T18:38:17.476Z,11.9
2023-03-27T18:40:45.732Z,7.6
2023-03-27T18:45:42.239Z,12.2
2023-03-27T18:48:10.497Z,10.9
2023-03-27T18:50:38.761Z,12.4
2023-03-27T18:53:07.016Z,14.1
2023-03-27T18:55:35.275Z,19.2
2023-03-27T18:58:03.534Z,10.7
2023-03-27T18:59:18.268Z,12.5
2023-03-27T19:00:31.806Z,11
2023-03-27T19:03:00.069Z,16.7
2023-03-27T19:05:28.326Z,16.2
2023-03-27T19:07:56.579Z,15.4
2023-03-27T19:10:24.834Z,14.5
2023-03-27T19:12:53.092Z,15.3
2023-03-27T19:17:49.608Z,15.4
2023-03-27T19:20:17.862Z,16
2023-03-27T19:22:46.125Z,16.7
2023-03-27T19:24:00.861Z,14.8
2023-03-27T19:25:14.398Z,15.1
2023-03-27T19:27:42.665Z,17.5
2023-03-27T19:30:10.915Z,15.1
2023-03-27T19:32:39.169Z,16.3
2023-03-27T19:35:07.433Z,13
2023-03-27T19:37:35.692Z,11.6
2023-03-27T19:40:03.948Z,9.3
2023-03-27T19:42:32.207Z,13.9
2023-03-27T19:45:00.456Z,11.7
2023-03-27T19:48:43.451Z,11.8
2023-03-27T19:49:56.991Z,12.3
2023-03-27T19:52:25.252Z,8.9
2023-03-27T19:54:53.512Z,6.8
2023-03-27T19:57:21.766Z,10.6
2023-03-27T19:59:50.024Z,7.9
2023-03-27T20:02:18.287Z,7.3
2023-03-27T20:04:46.538Z,7.6
2023-03-27T20:07:14.797Z,6.5
2023-03-27T20:09:43.057Z,7.7
2023-03-27T20:12:11.311Z,7.2
2023-03-27T20:13:26.046Z,5
2023-03-27T20:14:39.591Z,7.4
2023-03-27T20:19:36.108Z,6.2
2023-03-27T20:22:04.362Z,7.3
2023-03-27T20:24:32.622Z,8
2023-03-27T20:27:00.876Z,9.2
2023-03-27T20:29:29.134Z,9.2
2023-03-27T20:31:57.389Z,8.4
2023-03-27T20:34:25.650Z,11
2023-03-27T20:36:53.903Z,13.2
2023-03-27T20:38:08.637Z,15.2
2023-03-27T20:39:22.186Z,11.8
2023-03-27T20:41:50.441Z,8.7
2023-03-27T20:44:18.699Z,14.5
2023-03-27T20:46:46.959Z,10
2023-03-27T20:51:43.467Z,11.2
2023-03-27T20:54:11.725Z,9
2023-03-27T20:56:39.989Z,7.2
2023-03-27T20:59:08.246Z,7.9
2023-03-27T21:01:36.504Z,9.3
2023-03-27T21:02:51.234Z,9.1
2023-03-27T21:04:04.772Z,13.2
2023-03-27T21:06:33.032Z,7.8
2023-03-27T21:09:01.294Z,12.4
2023-03-27T21:11:29.546Z,9.8
2023-03-27T21:13:57.800Z,12.5
2023-03-27T21:16:26.073Z,8.2
2023-03-27T21:18:54.323Z,8.3
2023-03-27T21:23:50.832Z,11.3
2023-03-27T21:26:19.087Z,10.4
2023-03-27T21:27:33.824Z,11.1
2023-03-27T21:28:47.371Z,9.4
2023-03-27T21:31:15.628Z,11.4
2023-03-27T21:33:43.884Z,15.6
2023-03-27T21:36:12.138Z,11.8
2023-03-27T21:38:40.391Z,13.8
2023-03-27T21:41:08.650Z,12.4
2023-03-27T21:43:36.906Z,11.4
2023-03-27T21:46:05.168Z,10.4
2023-03-27T21:48:33.428Z,14.9
2023-03-27T21:51:01.680Z,13.3
2023-03-27T21:53:29.936Z,15.3
2023-03-27T21:55:58.202Z,15.7
2023-03-27T21:58:26.450Z,14
2023-03-27T22:00:54.707Z,9.8
2023-03-27T22:03:22.980Z,13
2023-03-27T22:05:51.222Z,10.9
2023-03-27T22:08:19.488Z,11.2
2023-03-27T22:10:47.736Z,13.1
2023-03-27T22:13:15.994Z,13
2023-03-27T22:15:44.255Z,14.2
2023-03-27T22:16:59.005Z,10.8
2023-03-27T22:18:12.547Z,14
2023-03-27T22:20:40.803Z,12.3
2023-03-27T22:25:37.316Z,11.9
2023-03-27T22:28:05.576Z,13.1
2023-03-27T22:30:33.836Z,13.5
2023-03-27T22:33:02.093Z,15.8
2023-03-27T22:35:30.350Z,13.5
2023-03-27T22:37:58.610Z,10.9
2023-03-27T22:40:26.863Z,11.1
2023-03-27T22:41:41.597Z,13.2
2023-03-27T22:42:55.145Z,12.5
2023-03-27T22:45:23.395Z,12.8
2023-03-27T22:47:51.651Z,14.4
2023-03-27T22:50:19.917Z,13.2
2023-03-27T22:52:48.167Z,12.2
2023-03-27T22:57:44.681Z,12.7
2023-03-27T23:00:12.939Z,8.7
2023-03-27T23:02:41.196Z,10.8
2023-03-27T23:05:09.453Z,16.4
2023-03-27T23:06:24.189Z,14.8
2023-03-27T23:07:37.735Z,9.8
2023-03-27T23:10:05.990Z,11.5
2023-03-27T23:12:34.246Z,13
2023-03-27T23:15:02.502Z,16.7
2023-03-27T23:17:30.760Z,13.9
2023-03-27T23:19:59.020Z,12.7
2023-03-27T23:22:27.273Z,13.7
2023-03-27T23:24:55.537Z,13.2
2023-03-27T23:29:52.045Z,11.9
2023-03-27T23:31:06.783Z,17.1
2023-03-27T23:32:20.327Z,12.2
2023-03-27T23:34:48.585Z,11.4
2023-03-27T23:37:16.843Z,12.7
2023-03-27T23:39:45.093Z,9.3
2023-03-27T23:42:13.351Z,10.3
2023-03-27T23:44:41.611Z,8.5
2023-03-27T23:47:09.865Z,9.5
2023-03-27T23:49:38.121Z,10.1
2023-03-27T23:52:06.380Z,7.9
2023-03-27T23:54:34.643Z,5.3
2023-03-27T23:55:49.369Z,8.3
2023-03-27T23:59:31.403Z,8.3
